sensor_id;sensor_type;location;lat;lon;timestamp;pressure;altitude;pressure_sealevel;temperature;humidity
18697;BME280;22617;43.690;27.956;2022-08-21T00:03:55;98231.19;;;21.75;73.83
18697;BME280;22617;43.690;27.956;2022-08-21T00:08:59;98232.13;;;21.60;74.20
18697;BME280;22617;43.690;27.956;2022-08-21T00:14:09;98236.84;;;21.55;74.37
18697;BME280;22617;43.690;27.956;2022-08-21T00:19:14;98233.75;;;21.48;73.79
18697;BME280;22617;43.690;27.956;2022-08-21T00:24:17;98232.59;;;21.38;73.67
18697;BME280;22617;43.690;27.956;2022-08-21T00:29:21;98239.75;;;21.36;74.58
18697;BME280;22617;43.690;27.956;2022-08-21T00:34:26;98239.38;;;21.28;74.29
18697;BME280;22617;43.690;27.956;2022-08-21T00:39:30;98242.19;;;21.25;73.67
18697;BME280;22617;43.690;27.956;2022-08-21T00:44:33;98238.78;;;21.23;73.77
18697;BME280;22617;43.690;27.956;2022-08-21T00:49:39;98233.84;;;21.17;73.67
18697;BME280;22617;43.690;27.956;2022-08-21T00:54:43;98241.75;;;21.33;73.39
18697;BME280;22617;43.690;27.956;2022-08-21T00:59:51;98244.16;;;21.21;73.92
18697;BME280;22617;43.690;27.956;2022-08-21T01:04:57;98232.63;;;21.07;74.18
18697;BME280;22617;43.690;27.956;2022-08-21T01:10:01;98236.06;;;21.09;74.30
18697;BME280;22617;43.690;27.956;2022-08-21T01:15:06;98233.84;;;21.01;73.51
18697;BME280;22617;43.690;27.956;2022-08-21T01:20:12;98239.34;;;20.98;73.83
18697;BME280;22617;43.690;27.956;2022-08-21T01:25:17;98238.34;;;20.85;75.07
18697;BME280;22617;43.690;27.956;2022-08-21T01:30:25;98237.09;;;21.06;74.06
18697;BME280;22617;43.690;27.956;2022-08-21T01:35:29;98218.91;;;21.00;74.54
18697;BME280;22617;43.690;27.956;2022-08-21T01:40:35;98213.75;;;21.13;74.20
18697;BME280;22617;43.690;27.956;2022-08-21T01:45:38;98224.75;;;21.21;74.39
18697;BME280;22617;43.690;27.956;2022-08-21T01:50:42;98216.75;;;21.07;74.48
18697;BME280;22617;43.690;27.956;2022-08-21T01:55:47;98216.34;;;21.14;74.80
18697;BME280;22617;43.690;27.956;2022-08-21T02:00:50;98212.63;;;21.17;75.04
18697;BME280;22617;43.690;27.956;2022-08-21T02:05:54;98207.47;;;21.00;75.74
18697;BME280;22617;43.690;27.956;2022-08-21T02:10:59;98204.25;;;20.79;77.20
18697;BME280;22617;43.690;27.956;2022-08-21T02:16:03;98205.03;;;20.81;78.52
18697;BME280;22617;43.690;27.956;2022-08-21T02:21:09;98207.22;;;20.88;79.23
18697;BME280;22617;43.690;27.956;2022-08-21T02:26:14;98215.03;;;21.06;79.67
18697;BME280;22617;43.690;27.956;2022-08-21T02:31:17;98217.59;;;21.23;80.09
18697;BME280;22617;43.690;27.956;2022-08-21T02:36:21;98211.44;;;21.07;81.41
18697;BME280;22617;43.690;27.956;2022-08-21T02:41:26;98220.84;;;21.12;82.07
18697;BME280;22617;43.690;27.956;2022-08-21T02:46:30;98210.94;;;21.16;81.91
18697;BME280;22617;43.690;27.956;2022-08-21T02:51:33;98213.81;;;21.27;82.45
18697;BME280;22617;43.690;27.956;2022-08-21T02:56:38;98224.50;;;21.40;82.60
18697;BME280;22617;43.690;27.956;2022-08-21T03:01:42;98225.00;;;21.46;83.11
18697;BME280;22617;43.690;27.956;2022-08-21T03:06:46;98226.16;;;21.56;83.05
18697;BME280;22617;43.690;27.956;2022-08-21T03:11:51;98221.44;;;21.61;83.89
18697;BME280;22617;43.690;27.956;2022-08-21T03:16:55;98229.69;;;21.71;84.34
18697;BME280;22617;43.690;27.956;2022-08-21T03:21:59;98224.56;;;21.82;84.51
18697;BME280;22617;43.690;27.956;2022-08-21T03:27:04;98224.09;;;21.90;84.79
18697;BME280;22617;43.690;27.956;2022-08-21T03:32:10;98229.31;;;22.05;84.73
18697;BME280;22617;43.690;27.956;2022-08-21T03:37:14;98232.56;;;22.10;84.83
18697;BME280;22617;43.690;27.956;2022-08-21T03:42:19;98231.69;;;22.10;85.34
18697;BME280;22617;43.690;27.956;2022-08-21T03:47:23;98224.28;;;22.15;85.58
18697;BME280;22617;43.690;27.956;2022-08-21T03:52:26;98238.44;;;22.15;86.00
18697;BME280;22617;43.690;27.956;2022-08-21T03:57:31;98235.34;;;22.22;86.25
18697;BME280;22617;43.690;27.956;2022-08-21T04:02:34;98242.25;;;22.38;86.40
18697;BME280;22617;43.690;27.956;2022-08-21T04:07:38;98254.16;;;22.59;86.19
18697;BME280;22617;43.690;27.956;2022-08-21T04:12:43;98251.75;;;22.69;86.79
18697;BME280;22617;43.690;27.956;2022-08-21T04:17:47;98254.53;;;22.68;87.47
18697;BME280;22617;43.690;27.956;2022-08-21T04:22:51;98261.53;;;22.69;88.00
18697;BME280;22617;43.690;27.956;2022-08-21T04:27:56;98252.91;;;22.79;88.39
18697;BME280;22617;43.690;27.956;2022-08-21T04:33:00;98262.66;;;22.79;88.74
18697;BME280;22617;43.690;27.956;2022-08-21T04:38:04;98255.47;;;22.81;89.09
18697;BME280;22617;43.690;27.956;2022-08-21T04:43:10;98253.56;;;22.83;89.24
18697;BME280;22617;43.690;27.956;2022-08-21T04:48:16;98242.50;;;22.89;89.82
18697;BME280;22617;43.690;27.956;2022-08-21T04:53:24;98237.00;;;22.92;90.00
18697;BME280;22617;43.690;27.956;2022-08-21T04:58:31;98231.72;;;23.04;90.17
18697;BME280;22617;43.690;27.956;2022-08-21T05:03:36;98236.72;;;23.09;89.52
18697;BME280;22617;43.690;27.956;2022-08-21T05:08:41;98231.97;;;23.27;89.45
18697;BME280;22617;43.690;27.956;2022-08-21T05:13:47;98224.03;;;23.39;89.23
18697;BME280;22617;43.690;27.956;2022-08-21T05:18:57;98223.03;;;23.40;88.75
18697;BME280;22617;43.690;27.956;2022-08-21T05:24:01;98227.63;;;23.38;88.08
18697;BME280;22617;43.690;27.956;2022-08-21T05:29:07;98225.00;;;23.51;87.71
18697;BME280;22617;43.690;27.956;2022-08-21T05:34:14;98213.75;;;23.73;87.45
18697;BME280;22617;43.690;27.956;2022-08-21T05:39:18;98206.38;;;23.89;86.61
18697;BME280;22617;43.690;27.956;2022-08-21T05:44:23;98220.31;;;24.05;85.64
18697;BME280;22617;43.690;27.956;2022-08-21T05:49:27;98219.63;;;24.27;82.89
18697;BME280;22617;43.690;27.956;2022-08-21T05:54:31;98214.38;;;24.51;79.90
18697;BME280;22617;43.690;27.956;2022-08-21T05:59:36;98211.06;;;24.71;78.55
18697;BME280;22617;43.690;27.956;2022-08-21T06:04:40;98202.03;;;24.85;76.23
18697;BME280;22617;43.690;27.956;2022-08-21T06:09:43;98219.75;;;24.98;71.66
18697;BME280;22617;43.690;27.956;2022-08-21T06:14:49;98215.78;;;25.15;71.01
18697;BME280;22617;43.690;27.956;2022-08-21T06:19:53;98225.19;;;25.32;71.52
18697;BME280;22617;43.690;27.956;2022-08-21T06:24:57;98222.50;;;25.55;70.23
18697;BME280;22617;43.690;27.956;2022-08-21T06:30:03;98217.78;;;25.70;70.33
18697;BME280;22617;43.690;27.956;2022-08-21T06:35:08;98220.94;;;25.86;69.96
18697;BME280;22617;43.690;27.956;2022-08-21T06:40:11;98215.34;;;26.12;70.19
18697;BME280;22617;43.690;27.956;2022-08-21T06:45:16;98214.75;;;26.41;69.14
18697;BME280;22617;43.690;27.956;2022-08-21T06:50:20;98222.25;;;26.59;69.35
18697;BME280;22617;43.690;27.956;2022-08-21T06:55:23;98216.31;;;26.44;69.34
18697;BME280;22617;43.690;27.956;2022-08-21T07:00:32;98219.38;;;26.82;69.26
18697;BME280;22617;43.690;27.956;2022-08-21T07:05:36;98209.25;;;26.97;69.53
18697;BME280;22617;43.690;27.956;2022-08-21T07:10:40;98210.28;;;27.38;68.06
18697;BME280;22617;43.690;27.956;2022-08-21T07:15:45;98205.94;;;27.57;67.55
18697;BME280;22617;43.690;27.956;2022-08-21T07:20:48;98210.22;;;27.49;66.77
18697;BME280;22617;43.690;27.956;2022-08-21T07:25:52;98209.09;;;27.10;68.04
18697;BME280;22617;43.690;27.956;2022-08-21T07:30:58;98202.25;;;27.38;67.78
18697;BME280;22617;43.690;27.956;2022-08-21T07:36:03;98196.66;;;27.92;63.78
18697;BME280;22617;43.690;27.956;2022-08-21T07:41:13;98200.94;;;27.73;63.05
18697;BME280;22617;43.690;27.956;2022-08-21T07:46:19;98200.88;;;27.85;64.83
18697;BME280;22617;43.690;27.956;2022-08-21T07:51:25;98190.06;;;28.26;61.72
18697;BME280;22617;43.690;27.956;2022-08-21T07:56:30;98191.03;;;28.75;61.63
18697;BME280;22617;43.690;27.956;2022-08-21T08:01:36;98190.75;;;29.07;60.41
18697;BME280;22617;43.690;27.956;2022-08-21T08:06:39;98191.66;;;28.38;61.82
18697;BME280;22617;43.690;27.956;2022-08-21T08:11:43;98189.63;;;28.80;61.33
18697;BME280;22617;43.690;27.956;2022-08-21T08:16:48;98190.63;;;29.08;60.05
18697;BME280;22617;43.690;27.956;2022-08-21T08:21:51;98181.34;;;28.34;61.35
18697;BME280;22617;43.690;27.956;2022-08-21T08:26:55;98174.59;;;28.49;60.95
18697;BME280;22617;43.690;27.956;2022-08-21T08:32:01;98165.16;;;29.51;60.17
18697;BME280;22617;43.690;27.956;2022-08-21T08:37:07;98151.34;;;29.92;60.09
18697;BME280;22617;43.690;27.956;2022-08-21T08:42:14;98154.34;;;30.16;55.01
18697;BME280;22617;43.690;27.956;2022-08-21T08:47:38;98147.44;;;30.31;53.12
18697;BME280;22617;43.690;27.956;2022-08-21T08:52:49;98138.59;;;30.66;53.61
18697;BME280;22617;43.690;27.956;2022-08-21T08:57:56;98137.91;;;30.82;52.99
18697;BME280;22617;43.690;27.956;2022-08-21T09:03:03;98136.50;;;30.60;53.07
18697;BME280;22617;43.690;27.956;2022-08-21T09:08:22;98134.28;;;30.28;55.12
18697;BME280;22617;43.690;27.956;2022-08-21T09:13:45;98127.75;;;30.58;54.68
18697;BME280;22617;43.690;27.956;2022-08-21T09:19:03;98125.09;;;30.31;55.09
18697;BME280;22617;43.690;27.956;2022-08-21T09:24:21;98119.91;;;29.56;55.10
18697;BME280;22617;43.690;27.956;2022-08-21T09:29:28;98119.25;;;30.36;55.54
18697;BME280;22617;43.690;27.956;2022-08-21T09:34:35;98116.84;;;30.15;54.63
18697;BME280;22617;43.690;27.956;2022-08-21T09:39:39;98107.63;;;29.90;54.76
18697;BME280;22617;43.690;27.956;2022-08-21T09:45:05;98104.34;;;29.59;56.93
18697;BME280;22617;43.690;27.956;2022-08-21T09:50:15;98088.97;;;31.22;57.26
18697;BME280;22617;43.690;27.956;2022-08-21T09:55:23;98090.09;;;31.71;51.73
18697;BME280;22617;43.690;27.956;2022-08-21T10:00:57;98089.88;;;32.32;50.94
18697;BME280;22617;43.690;27.956;2022-08-21T10:06:05;98079.09;;;32.49;50.97
18697;BME280;22617;43.690;27.956;2022-08-21T10:11:14;98093.59;;;31.97;52.21
18697;BME280;22617;43.690;27.956;2022-08-21T10:16:27;98079.97;;;31.13;52.05
18697;BME280;22617;43.690;27.956;2022-08-21T10:21:41;98071.56;;;31.68;53.32
18697;BME280;22617;43.690;27.956;2022-08-21T10:26:57;98075.44;;;31.14;53.59
18697;BME280;22617;43.690;27.956;2022-08-21T10:32:08;98066.22;;;30.28;54.28
18697;BME280;22617;43.690;27.956;2022-08-21T10:37:40;98055.81;;;29.88;55.46
18697;BME280;22617;43.690;27.956;2022-08-21T10:43:00;98056.66;;;31.22;54.19
18697;BME280;22617;43.690;27.956;2022-08-21T10:48:11;98056.22;;;31.09;54.17
18697;BME280;22617;43.690;27.956;2022-08-21T10:53:41;98057.50;;;30.61;54.95
18697;BME280;22617;43.690;27.956;2022-08-21T10:59:02;98048.94;;;30.30;55.35
18697;BME280;22617;43.690;27.956;2022-08-21T11:04:12;98029.56;;;29.92;56.34
18697;BME280;22617;43.690;27.956;2022-08-21T11:09:24;98044.72;;;31.25;54.06
18697;BME280;22617;43.690;27.956;2022-08-21T11:14:36;98035.81;;;31.32;52.85
18697;BME280;22617;43.690;27.956;2022-08-21T11:19:54;98038.91;;;30.50;53.89
18697;BME280;22617;43.690;27.956;2022-08-21T11:25:08;98039.03;;;30.66;55.20
18697;BME280;22617;43.690;27.956;2022-08-21T11:30:14;98035.88;;;30.89;53.70
18697;BME280;22617;43.690;27.956;2022-08-21T11:35:24;98024.88;;;30.82;54.65
18697;BME280;22617;43.690;27.956;2022-08-21T11:40:46;98019.81;;;32.07;53.35
18697;BME280;22617;43.690;27.956;2022-08-21T11:45:55;98019.75;;;31.90;52.29
18697;BME280;22617;43.690;27.956;2022-08-21T11:51:00;98016.41;;;31.88;53.44
18697;BME280;22617;43.690;27.956;2022-08-21T11:56:12;98012.19;;;30.74;54.80
18697;BME280;22617;43.690;27.956;2022-08-21T12:01:22;98014.53;;;30.52;57.50
18697;BME280;22617;43.690;27.956;2022-08-21T12:06:32;98012.97;;;29.69;58.96
18697;BME280;22617;43.690;27.956;2022-08-21T12:11:47;98007.59;;;30.14;59.65
18697;BME280;22617;43.690;27.956;2022-08-21T12:17:04;98007.28;;;30.70;57.71
18697;BME280;22617;43.690;27.956;2022-08-21T12:22:14;98008.22;;;31.04;57.30
18697;BME280;22617;43.690;27.956;2022-08-21T12:27:26;97997.22;;;30.98;57.24
18697;BME280;22617;43.690;27.956;2022-08-21T12:32:43;98015.88;;;29.75;58.69
18697;BME280;22617;43.690;27.956;2022-08-21T12:37:56;98021.47;;;28.81;61.95
18697;BME280;22617;43.690;27.956;2022-08-21T12:43:01;98007.03;;;29.38;61.02
18697;BME280;22617;43.690;27.956;2022-08-21T12:48:10;98000.00;;;29.92;59.69
18697;BME280;22617;43.690;27.956;2022-08-21T12:53:27;97992.22;;;30.42;58.19
18697;BME280;22617;43.690;27.956;2022-08-21T12:58:33;97987.94;;;30.92;56.92
18697;BME280;22617;43.690;27.956;2022-08-21T13:03:37;97987.16;;;30.39;56.69
18697;BME280;22617;43.690;27.956;2022-08-21T13:08:43;97992.94;;;29.63;58.60
18697;BME280;22617;43.690;27.956;2022-08-21T13:13:50;98011.97;;;28.96;60.38
18697;BME280;22617;43.690;27.956;2022-08-21T13:18:58;98001.97;;;28.50;61.85
18697;BME280;22617;43.690;27.956;2022-08-21T13:24:15;98006.38;;;28.22;61.87
18697;BME280;22617;43.690;27.956;2022-08-21T13:29:41;98004.66;;;28.21;61.94
18697;BME280;22617;43.690;27.956;2022-08-21T13:34:54;98001.53;;;27.97;62.45
18697;BME280;22617;43.690;27.956;2022-08-21T13:39:57;98010.88;;;28.12;61.89
18697;BME280;22617;43.690;27.956;2022-08-21T13:45:03;98010.31;;;28.18;61.20
18697;BME280;22617;43.690;27.956;2022-08-21T13:50:08;98006.38;;;28.12;61.47
18697;BME280;22617;43.690;27.956;2022-08-21T13:55:16;97993.41;;;28.17;61.94
18697;BME280;22617;43.690;27.956;2022-08-21T14:00:29;97999.47;;;28.29;62.17
18697;BME280;22617;43.690;27.956;2022-08-21T14:05:35;98008.63;;;28.27;61.52
18697;BME280;22617;43.690;27.956;2022-08-21T14:10:42;98001.72;;;28.43;60.92
18697;BME280;22617;43.690;27.956;2022-08-21T14:15:55;97995.06;;;28.67;60.01
18697;BME280;22617;43.690;27.956;2022-08-21T14:21:08;98001.00;;;29.17;59.61
18697;BME280;22617;43.690;27.956;2022-08-21T14:26:12;97990.56;;;29.51;58.85
18697;BME280;22617;43.690;27.956;2022-08-21T14:31:29;97984.63;;;29.57;58.71
18697;BME280;22617;43.690;27.956;2022-08-21T14:36:34;97978.97;;;29.50;58.46
18697;BME280;22617;43.690;27.956;2022-08-21T14:41:38;97981.19;;;29.37;58.35
18697;BME280;22617;43.690;27.956;2022-08-21T14:46:43;97973.78;;;29.02;58.61
18697;BME280;22617;43.690;27.956;2022-08-21T14:51:58;97975.94;;;28.98;58.26
18697;BME280;22617;43.690;27.956;2022-08-21T14:57:06;97980.66;;;28.87;57.86
18697;BME280;22617;43.690;27.956;2022-08-21T15:02:12;97975.28;;;28.87;58.06
18697;BME280;22617;43.690;27.956;2022-08-21T15:07:15;97981.22;;;28.81;57.51
18697;BME280;22617;43.690;27.956;2022-08-21T15:12:19;97980.50;;;28.59;58.78
18697;BME280;22617;43.690;27.956;2022-08-21T15:17:24;97979.13;;;28.55;59.76
18697;BME280;22617;43.690;27.956;2022-08-21T15:22:28;97986.31;;;28.45;59.65
18697;BME280;22617;43.690;27.956;2022-08-21T15:27:32;97986.19;;;28.37;59.81
18697;BME280;22617;43.690;27.956;2022-08-21T15:32:36;97986.94;;;28.20;59.91
18697;BME280;22617;43.690;27.956;2022-08-21T15:37:41;97987.69;;;27.92;61.20
18697;BME280;22617;43.690;27.956;2022-08-21T15:42:44;97988.41;;;27.84;61.27
18697;BME280;22617;43.690;27.956;2022-08-21T15:47:50;97989.13;;;27.86;60.25
18697;BME280;22617;43.690;27.956;2022-08-21T15:52:54;97993.56;;;27.57;60.59
18697;BME280;22617;43.690;27.956;2022-08-21T15:57:58;97982.81;;;27.47;60.80
18697;BME280;22617;43.690;27.956;2022-08-21T16:03:08;97986.75;;;27.43;61.75
18697;BME280;22617;43.690;27.956;2022-08-21T16:08:14;97989.09;;;27.37;62.63
18697;BME280;22617;43.690;27.956;2022-08-21T16:13:21;97990.78;;;27.28;62.53
18697;BME280;22617;43.690;27.956;2022-08-21T16:18:28;97986.59;;;27.05;62.98
18697;BME280;22617;43.690;27.956;2022-08-21T16:23:31;97993.47;;;27.07;62.49
18697;BME280;22617;43.690;27.956;2022-08-21T16:28:38;98005.63;;;26.70;63.49
18697;BME280;22617;43.690;27.956;2022-08-21T16:33:49;98008.81;;;26.64;64.05
18697;BME280;22617;43.690;27.956;2022-08-21T16:38:59;98011.69;;;26.51;64.62
18697;BME280;22617;43.690;27.956;2022-08-21T16:44:04;98013.97;;;26.35;65.35
18697;BME280;22617;43.690;27.956;2022-08-21T16:49:12;98019.56;;;26.32;65.84
18697;BME280;22617;43.690;27.956;2022-08-21T16:54:15;98018.84;;;26.19;66.27
18697;BME280;22617;43.690;27.956;2022-08-21T16:59:19;98028.84;;;26.05;66.54
18697;BME280;22617;43.690;27.956;2022-08-21T17:04:24;98026.47;;;25.91;66.94
18697;BME280;22617;43.690;27.956;2022-08-21T17:09:29;98018.25;;;25.83;67.40
18697;BME280;22617;43.690;27.956;2022-08-21T17:14:34;98007.09;;;25.78;67.68
18697;BME280;22617;43.690;27.956;2022-08-21T17:19:40;98016.56;;;25.49;68.28
18697;BME280;22617;43.690;27.956;2022-08-21T17:24:44;98016.34;;;25.41;68.67
18697;BME280;22617;43.690;27.956;2022-08-21T17:29:48;98013.44;;;25.33;68.96
18697;BME280;22617;43.690;27.956;2022-08-21T17:34:53;98031.28;;;25.21;69.49
18697;BME280;22617;43.690;27.956;2022-08-21T17:39:56;98037.94;;;25.15;69.82
18697;BME280;22617;43.690;27.956;2022-08-21T17:45:00;98046.03;;;25.14;70.11
18697;BME280;22617;43.690;27.956;2022-08-21T17:50:09;98050.78;;;25.22;70.03
18697;BME280;22617;43.690;27.956;2022-08-21T17:55:15;98044.16;;;24.81;70.28
18697;BME280;22617;43.690;27.956;2022-08-21T18:00:19;98043.72;;;24.87;70.38
18697;BME280;22617;43.690;27.956;2022-08-21T18:05:25;98046.28;;;24.89;70.73
18697;BME280;22617;43.690;27.956;2022-08-21T18:10:29;98038.13;;;24.90;70.62
18697;BME280;22617;43.690;27.956;2022-08-21T18:15:33;98033.91;;;24.88;69.90
18697;BME280;22617;43.690;27.956;2022-08-21T18:20:38;98030.31;;;24.76;70.65
18697;BME280;22617;43.690;27.956;2022-08-21T18:25:45;98038.06;;;24.68;70.95
18697;BME280;22617;43.690;27.956;2022-08-21T18:30:49;98038.03;;;24.57;71.32
18697;BME280;22617;43.690;27.956;2022-08-21T18:35:56;98028.19;;;24.46;71.38
18697;BME280;22617;43.690;27.956;2022-08-21T18:41:00;98038.94;;;24.33;70.84
18697;BME280;22617;43.690;27.956;2022-08-21T18:46:11;98036.69;;;24.16;71.31
18697;BME280;22617;43.690;27.956;2022-08-21T18:51:16;98035.41;;;24.09;71.88
18697;BME280;22617;43.690;27.956;2022-08-21T18:56:20;98036.81;;;24.02;72.31
18697;BME280;22617;43.690;27.956;2022-08-21T19:01:24;98039.75;;;23.86;72.62
18697;BME280;22617;43.690;27.956;2022-08-21T19:06:29;98047.22;;;23.81;72.70
18697;BME280;22617;43.690;27.956;2022-08-21T19:11:35;98046.28;;;23.70;72.18
18697;BME280;22617;43.690;27.956;2022-08-21T19:17:01;98050.72;;;23.58;72.05
18697;BME280;22617;43.690;27.956;2022-08-21T19:22:07;98057.31;;;23.40;73.98
18697;BME280;22617;43.690;27.956;2022-08-21T19:27:30;98050.50;;;23.36;73.28
18697;BME280;22617;43.690;27.956;2022-08-21T19:32:34;98060.06;;;23.38;73.79
18697;BME280;22617;43.690;27.956;2022-08-21T19:37:45;98057.88;;;23.20;73.65
18697;BME280;22617;43.690;27.956;2022-08-21T19:42:49;98068.81;;;23.15;74.28
18697;BME280;22617;43.690;27.956;2022-08-21T19:47:53;98067.75;;;23.18;74.42
18697;BME280;22617;43.690;27.956;2022-08-21T19:53:01;98052.84;;;23.28;73.97
18697;BME280;22617;43.690;27.956;2022-08-21T19:58:05;98050.94;;;23.17;73.25
18697;BME280;22617;43.690;27.956;2022-08-21T20:03:09;98040.41;;;23.03;73.77
18697;BME280;22617;43.690;27.956;2022-08-21T20:08:14;98038.94;;;22.99;74.49
18697;BME280;22617;43.690;27.956;2022-08-21T20:13:21;98040.94;;;23.08;73.91
18697;BME280;22617;43.690;27.956;2022-08-21T20:18:26;98044.47;;;23.09;73.74
18697;BME280;22617;43.690;27.956;2022-08-21T20:23:31;98050.31;;;23.14;73.66
18697;BME280;22617;43.690;27.956;2022-08-21T20:28:35;98052.66;;;23.06;73.54
18697;BME280;22617;43.690;27.956;2022-08-21T20:33:40;98053.94;;;23.00;73.42
18697;BME280;22617;43.690;27.956;2022-08-21T20:38:46;98048.72;;;22.86;74.17
18697;BME280;22617;43.690;27.956;2022-08-21T20:43:54;98055.75;;;22.87;74.37
18697;BME280;22617;43.690;27.956;2022-08-21T20:48:59;98046.50;;;22.92;73.69
18697;BME280;22617;43.690;27.956;2022-08-21T20:54:16;98040.84;;;22.72;73.87
18697;BME280;22617;43.690;27.956;2022-08-21T20:59:39;98046.31;;;22.69;74.03
18697;BME280;22617;43.690;27.956;2022-08-21T21:04:47;98041.13;;;22.67;74.39
18697;BME280;22617;43.690;27.956;2022-08-21T21:09:54;98035.19;;;22.64;74.49
18697;BME280;22617;43.690;27.956;2022-08-21T21:15:04;98043.66;;;22.69;74.20
18697;BME280;22617;43.690;27.956;2022-08-21T21:20:16;98057.69;;;22.58;74.90
18697;BME280;22617;43.690;27.956;2022-08-21T21:25:31;98068.31;;;22.58;74.88
18697;BME280;22617;43.690;27.956;2022-08-21T21:30:43;98064.91;;;22.43;73.95
18697;BME280;22617;43.690;27.956;2022-08-21T21:35:54;98056.31;;;22.52;73.84
18697;BME280;22617;43.690;27.956;2022-08-21T21:41:09;98067.13;;;22.49;74.24
18697;BME280;22617;43.690;27.956;2022-08-21T21:46:22;98064.06;;;22.55;73.80
18697;BME280;22617;43.690;27.956;2022-08-21T21:51:39;98064.91;;;22.43;74.37
18697;BME280;22617;43.690;27.956;2022-08-21T21:56:53;98061.69;;;22.38;74.23
18697;BME280;22617;43.690;27.956;2022-08-21T22:02:05;98055.91;;;22.19;74.60
18697;BME280;22617;43.690;27.956;2022-08-21T22:07:15;98056.22;;;22.14;74.79
18697;BME280;22617;43.690;27.956;2022-08-21T22:12:32;98050.47;;;22.21;74.76
18697;BME280;22617;43.690;27.956;2022-08-21T22:18:02;98051.59;;;22.04;74.39
18697;BME280;22617;43.690;27.956;2022-08-21T22:23:14;98048.63;;;22.08;75.10
18697;BME280;22617;43.690;27.956;2022-08-21T22:28:23;98035.66;;;22.04;74.59
18697;BME280;22617;43.690;27.956;2022-08-21T22:33:28;98025.75;;;21.93;75.10
18697;BME280;22617;43.690;27.956;2022-08-21T22:38:33;98032.09;;;21.91;74.98
18697;BME280;22617;43.690;27.956;2022-08-21T22:43:54;98033.81;;;21.92;75.04
18697;BME280;22617;43.690;27.956;2022-08-21T22:49:06;98042.16;;;21.86;74.55
18697;BME280;22617;43.690;27.956;2022-08-21T22:54:12;98046.50;;;21.87;75.22
18697;BME280;22617;43.690;27.956;2022-08-21T22:59:26;98037.22;;;21.94;74.83
18697;BME280;22617;43.690;27.956;2022-08-21T23:04:30;98037.63;;;21.73;75.57
18697;BME280;22617;43.690;27.956;2022-08-21T23:09:37;98046.41;;;21.88;75.23
18697;BME280;22617;43.690;27.956;2022-08-21T23:14:50;98041.91;;;21.76;75.87
18697;BME280;22617;43.690;27.956;2022-08-21T23:20:19;98051.09;;;21.70;76.06
18697;BME280;22617;43.690;27.956;2022-08-21T23:25:45;98051.00;;;21.72;75.96
18697;BME280;22617;43.690;27.956;2022-08-21T23:31:04;98054.78;;;21.68;76.26
18697;BME280;22617;43.690;27.956;2022-08-21T23:36:21;98059.13;;;21.69;76.22
18697;BME280;22617;43.690;27.956;2022-08-21T23:41:49;98074.31;;;21.67;75.90
18697;BME280;22617;43.690;27.956;2022-08-21T23:47:05;98068.16;;;21.66;76.61
18697;BME280;22617;43.690;27.956;2022-08-21T23:52:21;98055.75;;;21.67;76.55
18697;BME280;22617;43.690;27.956;2022-08-21T23:57:41;98057.25;;;21.71;76.90
